createdAt,value
2018-06-15T00:00:54.498Z,14.50
2018-06-15T00:03:22.897Z,14.50
2018-06-15T00:05:51.345Z,14.50
2018-06-15T00:08:19.753Z,14.50
2018-06-15T00:10:48.178Z,14.40
2018-06-15T00:13:16.573Z,14.50
2018-06-15T00:15:44.985Z,14.60
2018-06-15T00:18:13.390Z,14.60
2018-06-15T00:20:41.858Z,14.60
2018-06-15T00:23:10.271Z,14.50
2018-06-15T00:25:38.729Z,14.60
2018-06-15T00:28:07.175Z,14.60
2018-06-15T00:30:35.637Z,14.60
2018-06-15T00:33:04.099Z,14.60
2018-06-15T00:35:32.542Z,14.50
2018-06-15T00:38:00.977Z,14.50
2018-06-15T00:40:29.467Z,14.50
2018-06-15T00:42:57.885Z,14.50
2018-06-15T00:45:26.328Z,14.40
2018-06-15T00:47:54.782Z,14.40
2018-06-15T00:50:23.238Z,14.40
2018-06-15T00:55:19.818Z,14.50
2018-06-15T00:57:49.405Z,14.50
2018-06-15T01:00:18.522Z,14.40
2018-06-15T01:02:47.279Z,14.40
2018-06-15T01:05:15.740Z,14.40
2018-06-15T01:07:44.252Z,14.40
2018-06-15T01:10:12.716Z,14.40
2018-06-15T01:12:41.158Z,14.50
2018-06-15T01:15:09.627Z,14.40
2018-06-15T01:17:38.373Z,14.40
2018-06-15T01:25:03.155Z,14.40
2018-06-15T01:27:31.581Z,14.50
2018-06-15T01:32:28.201Z,14.50
2018-06-15T01:34:56.645Z,14.50
2018-06-15T01:37:25.098Z,14.60
2018-06-15T01:39:53.545Z,14.60
2018-06-15T01:42:22.053Z,14.60
2018-06-15T01:44:50.504Z,14.60
2018-06-15T01:47:18.929Z,14.60
2018-06-15T01:49:47.383Z,14.60
2018-06-15T01:54:43.974Z,14.60
2018-06-15T01:57:12.434Z,14.60
2018-06-15T01:59:40.871Z,14.60
2018-06-15T02:02:09.306Z,14.60
2018-06-15T02:04:37.730Z,14.50
2018-06-15T02:09:34.319Z,14.40
2018-06-15T02:12:02.799Z,14.40
2018-06-15T02:14:31.245Z,14.40
2018-06-15T02:16:59.725Z,14.50
2018-06-15T02:19:28.170Z,14.50
2018-06-15T02:21:56.634Z,14.50
2018-06-15T02:24:25.080Z,14.50
2018-06-15T02:29:21.700Z,14.40
2018-06-15T02:31:50.206Z,14.40
2018-06-15T02:34:18.656Z,14.30
2018-06-15T02:36:47.145Z,14.40
2018-06-15T02:39:15.625Z,14.40
2018-06-15T02:41:44.182Z,14.40
2018-06-15T02:44:12.698Z,14.40
2018-06-15T02:46:41.211Z,14.40
2018-06-15T02:49:09.777Z,14.40
2018-06-15T02:56:34.870Z,14.40
2018-06-15T02:59:03.443Z,14.40
2018-06-15T03:01:31.995Z,14.40
2018-06-15T03:04:00.540Z,14.50
2018-06-15T03:06:29.109Z,14.50
2018-06-15T03:08:57.662Z,14.40
2018-06-15T03:11:26.135Z,14.40
2018-06-15T03:13:54.591Z,14.30
2018-06-15T03:16:23.046Z,14.30
2018-06-15T03:18:51.501Z,14.20
2018-06-15T03:21:20.006Z,14.30
2018-06-15T03:23:48.526Z,14.30
2018-06-15T03:26:16.994Z,14.30
2018-06-15T03:31:13.597Z,14.40
2018-06-15T03:33:42.078Z,14.40
2018-06-15T03:36:10.587Z,14.40
2018-06-15T03:38:39.106Z,14.40
2018-06-15T03:41:07.574Z,14.40
2018-06-15T03:46:04.345Z,14.30
2018-06-15T03:48:32.830Z,14.20
2018-06-15T03:51:01.310Z,14.20
2018-06-15T03:53:29.746Z,14.10
2018-06-15T03:55:58.225Z,14.20
2018-06-15T03:58:26.687Z,14.20
2018-06-15T04:00:55.132Z,14.20
2018-06-15T04:03:23.597Z,14.30
2018-06-15T04:05:52.026Z,14.30
2018-06-15T04:08:20.560Z,14.40
2018-06-15T04:10:49.019Z,14.40
2018-06-15T04:13:17.532Z,14.40
2018-06-15T04:15:46.038Z,14.40
2018-06-15T04:18:14.603Z,14.50
2018-06-15T04:20:43.189Z,14.50
2018-06-15T04:23:11.816Z,14.50
2018-06-15T04:25:40.309Z,14.50
2018-06-15T04:30:37.005Z,14.50
2018-06-15T04:33:05.493Z,14.60
2018-06-15T04:35:34.009Z,14.60
2018-06-15T04:38:03.108Z,14.50
2018-06-15T04:40:31.546Z,14.50
2018-06-15T04:43:00.007Z,14.60
2018-06-15T04:45:28.454Z,14.60
2018-06-15T04:47:56.914Z,14.60
2018-06-15T04:50:25.376Z,14.70
2018-06-15T04:52:53.886Z,14.70
2018-06-15T04:55:22.346Z,14.80
2018-06-15T04:57:50.801Z,14.80
2018-06-15T05:00:19.245Z,14.80
2018-06-15T05:02:47.710Z,14.80
2018-06-15T05:05:16.140Z,14.80
2018-06-15T05:07:44.607Z,14.80
2018-06-15T05:10:13.062Z,14.90
2018-06-15T05:12:41.508Z,14.90
2018-06-15T05:15:09.943Z,15.00
2018-06-15T05:17:38.397Z,15.10
2018-06-15T05:20:06.906Z,15.10
2018-06-15T05:22:35.409Z,15.10
2018-06-15T05:25:03.903Z,15.20
2018-06-15T05:27:32.403Z,15.10
2018-06-15T05:30:00.870Z,15.10
2018-06-15T05:32:29.334Z,15.20
2018-06-15T05:34:57.765Z,15.20
2018-06-15T05:37:26.370Z,15.30
2018-06-15T05:39:54.829Z,15.50
2018-06-15T05:42:23.309Z,15.60
2018-06-15T05:47:19.949Z,15.60
2018-06-15T05:49:48.422Z,15.80
2018-06-15T05:52:16.931Z,15.70
2018-06-15T05:54:45.387Z,15.70
2018-06-15T05:57:13.861Z,15.70
2018-06-15T05:59:42.302Z,15.50
2018-06-15T06:02:10.734Z,15.60
2018-06-15T06:04:39.202Z,15.70
2018-06-15T06:07:08.458Z,15.90
2018-06-15T06:09:36.930Z,16.00
2018-06-15T06:12:05.370Z,16.00
2018-06-15T06:14:33.825Z,15.90
2018-06-15T06:17:02.279Z,16.00
2018-06-15T06:19:30.754Z,16.20
2018-06-15T06:21:59.186Z,16.30
2018-06-15T06:24:27.647Z,16.20
2018-06-15T06:26:56.131Z,16.20
2018-06-15T06:29:24.607Z,16.20
2018-06-15T06:31:53.041Z,16.20
2018-06-15T06:34:21.486Z,16.20
2018-06-15T06:36:49.946Z,16.20
2018-06-15T06:39:18.406Z,16.30
2018-06-15T06:41:46.858Z,16.30
2018-06-15T06:44:15.358Z,16.10
2018-06-15T06:46:43.782Z,16.00
2018-06-15T06:49:12.248Z,16.10
2018-06-15T06:51:40.681Z,16.20
2018-06-15T06:54:09.137Z,16.30
2018-06-15T06:59:06.076Z,16.40
2018-06-15T07:01:34.529Z,16.60
2018-06-15T07:04:02.981Z,16.80
2018-06-15T07:06:31.405Z,16.70
2018-06-15T07:08:59.854Z,16.60
2018-06-15T07:11:28.290Z,16.80
2018-06-15T07:13:56.805Z,17.00
2018-06-15T07:16:25.245Z,17.10
2018-06-15T07:18:53.951Z,17.20
2018-06-15T07:23:50.525Z,17.00
2018-06-15T07:26:18.970Z,17.10
2018-06-15T07:31:15.535Z,17.10
2018-06-15T07:36:12.115Z,16.90
2018-06-15T07:38:40.607Z,16.90
2018-06-15T07:41:09.649Z,17.00
2018-06-15T07:46:06.289Z,17.40
2018-06-15T07:48:34.728Z,17.80
2018-06-15T07:51:03.177Z,17.80
2018-06-15T07:53:31.649Z,18.00
2018-06-15T07:58:28.238Z,18.60
2018-06-15T08:00:56.661Z,18.70
2018-06-15T08:03:25.222Z,18.60
2018-06-15T08:05:53.673Z,18.50
2018-06-15T08:08:22.114Z,18.60
2018-06-15T08:10:50.553Z,18.40
2018-06-15T08:13:18.992Z,18.20
2018-06-15T08:15:47.506Z,18.00
2018-06-15T08:18:15.900Z,18.30
2018-06-15T08:20:44.362Z,18.60
2018-06-15T08:23:12.795Z,18.60
2018-06-15T08:28:09.361Z,18.80
2018-06-15T08:30:37.858Z,19.10
2018-06-15T08:33:06.278Z,19.30
2018-06-15T08:35:34.733Z,19.40
2018-06-15T08:38:03.179Z,19.30
2018-06-15T08:40:31.631Z,19.60
2018-06-15T08:43:00.064Z,20.00
2018-06-15T08:45:28.537Z,20.00
2018-06-15T08:47:56.963Z,20.00
2018-06-15T08:50:25.416Z,20.00
2018-06-15T08:52:54.052Z,19.60
2018-06-15T08:55:22.486Z,19.30
2018-06-15T08:57:50.909Z,19.40
2018-06-15T09:00:19.360Z,19.50
2018-06-15T09:02:47.781Z,19.70
2018-06-15T09:05:16.242Z,19.70
2018-06-15T09:10:12.894Z,19.70
2018-06-15T09:12:41.366Z,19.70
2018-06-15T09:15:09.809Z,20.50
2018-06-15T09:17:38.259Z,20.00
2018-06-15T09:20:06.737Z,20.00
2018-06-15T09:22:35.161Z,20.60
2018-06-15T09:25:03.614Z,21.20
2018-06-15T09:27:32.026Z,20.90
2018-06-15T09:30:00.505Z,20.90
2018-06-15T09:32:29.154Z,20.30
2018-06-15T09:34:57.637Z,20.50
2018-06-15T09:37:26.097Z,20.60
2018-06-15T09:39:54.689Z,21.50
2018-06-15T09:42:23.102Z,21.40
2018-06-15T09:44:51.570Z,20.50
2018-06-15T09:47:20.007Z,20.30
2018-06-15T09:49:48.435Z,20.50
2018-06-15T09:52:16.891Z,20.60
2018-06-15T09:54:45.329Z,20.50
2018-06-15T10:02:10.089Z,21.10
2018-06-15T10:04:38.498Z,21.10
2018-06-15T10:07:06.932Z,21.80
2018-06-15T10:09:35.329Z,22.20
2018-06-15T10:12:04.069Z,22.30
2018-06-15T10:14:32.505Z,22.50
2018-06-15T10:17:01.145Z,22.50
2018-06-15T10:19:29.571Z,22.80
2018-06-15T10:21:57.997Z,22.70
2018-06-15T10:24:26.443Z,22.80
2018-06-15T10:26:54.912Z,23.10
2018-06-15T10:29:23.338Z,23.80
2018-06-15T10:31:51.817Z,24.50
2018-06-15T10:34:20.266Z,24.70
2018-06-15T10:36:48.778Z,24.80
2018-06-15T10:39:17.223Z,23.70
2018-06-15T10:41:45.709Z,24.00
2018-06-15T10:44:14.149Z,24.00
2018-06-15T10:46:42.605Z,23.10
2018-06-15T10:51:39.174Z,23.00
2018-06-15T10:54:09.332Z,23.40
2018-06-15T10:56:37.887Z,23.40
2018-06-15T10:59:06.346Z,23.30
2018-06-15T11:01:34.823Z,23.70
2018-06-15T11:06:31.486Z,22.70
2018-06-15T11:08:59.997Z,22.60
2018-06-15T11:11:28.436Z,22.60
2018-06-15T11:16:25.004Z,22.30
2018-06-15T11:18:53.806Z,22.20
2018-06-15T11:21:22.230Z,22.10
2018-06-15T11:23:50.743Z,21.70
2018-06-15T11:28:47.352Z,21.70
2018-06-15T11:31:15.840Z,21.50
2018-06-15T11:33:44.257Z,21.30
2018-06-15T11:38:40.868Z,21.30
2018-06-15T11:41:09.393Z,21.30
2018-06-15T11:43:37.843Z,21.40
2018-06-15T11:46:06.322Z,21.60
2018-06-15T11:48:34.762Z,21.50
2018-06-15T11:51:03.190Z,21.40
2018-06-15T11:53:31.653Z,21.40
2018-06-15T11:56:00.081Z,21.50
2018-06-15T11:58:28.536Z,21.70
2018-06-15T12:00:56.957Z,21.50
2018-06-15T12:03:25.420Z,21.40
2018-06-15T12:05:53.854Z,21.40
2018-06-15T12:08:22.314Z,21.30
2018-06-15T12:10:50.773Z,21.30
2018-06-15T12:13:19.230Z,21.40
2018-06-15T12:15:47.676Z,21.60
2018-06-15T12:18:16.157Z,21.80
2018-06-15T12:20:44.571Z,22.00
2018-06-15T12:23:13.041Z,21.90
2018-06-15T12:25:41.490Z,22.20
2018-06-15T12:28:09.934Z,22.10
2018-06-15T12:30:38.414Z,22.40
2018-06-15T12:33:06.933Z,22.70
2018-06-15T12:35:35.470Z,22.80
2018-06-15T12:38:03.917Z,22.80
2018-06-15T12:43:00.559Z,23.10
2018-06-15T12:45:28.985Z,23.40
2018-06-15T12:47:57.454Z,23.80
2018-06-15T12:50:25.870Z,23.70
2018-06-15T12:52:54.326Z,23.20
2018-06-15T12:55:22.777Z,23.00
2018-06-15T12:57:51.258Z,23.40
2018-06-15T13:00:19.715Z,23.90
2018-06-15T13:02:48.150Z,23.80
2018-06-15T13:05:16.598Z,23.70
2018-06-15T13:07:45.014Z,23.80
2018-06-15T13:10:13.453Z,24.20
2018-06-15T13:15:10.034Z,23.80
2018-06-15T13:17:38.450Z,24.10
2018-06-15T13:20:06.934Z,24.30
2018-06-15T13:22:35.387Z,24.50
2018-06-15T13:25:03.906Z,24.90
2018-06-15T13:27:32.338Z,25.50
2018-06-15T13:30:00.804Z,25.50
2018-06-15T13:32:29.353Z,26.00
2018-06-15T13:34:57.795Z,26.20
2018-06-15T13:37:26.257Z,25.10
2018-06-15T13:39:54.777Z,25.10
2018-06-15T13:42:23.408Z,25.20
2018-06-15T13:44:51.873Z,25.70
2018-06-15T13:49:48.508Z,24.30
2018-06-15T13:52:16.955Z,23.40
2018-06-15T13:54:45.717Z,23.50
2018-06-15T13:57:14.153Z,23.70
2018-06-15T13:59:42.622Z,24.10
2018-06-15T14:02:11.082Z,23.90
2018-06-15T14:04:39.544Z,23.00
2018-06-15T14:07:08.012Z,22.40
2018-06-15T14:09:36.453Z,22.70
2018-06-15T14:12:04.906Z,23.00
2018-06-15T14:14:33.457Z,22.70
2018-06-15T14:17:01.926Z,22.40
2018-06-15T14:19:30.386Z,22.40
2018-06-15T14:24:26.984Z,22.10
2018-06-15T14:26:55.450Z,21.80
2018-06-15T14:29:23.898Z,21.80
2018-06-15T14:31:52.473Z,21.50
2018-06-15T14:34:20.942Z,21.70
2018-06-15T14:39:17.541Z,21.50
2018-06-15T14:41:45.965Z,21.70
2018-06-15T14:44:14.419Z,21.80
2018-06-15T14:46:42.860Z,21.90
2018-06-15T14:49:11.330Z,21.70
2018-06-15T14:51:39.762Z,21.40
2018-06-15T14:54:08.236Z,21.30
2018-06-15T14:56:36.682Z,21.50
2018-06-15T14:59:05.138Z,21.80
2018-06-15T15:01:33.562Z,21.80
2018-06-15T15:04:01.994Z,21.60
2018-06-15T15:06:30.438Z,21.80
2018-06-15T15:08:58.924Z,21.90
2018-06-15T15:11:27.367Z,22.00
2018-06-15T15:13:56.128Z,21.70
2018-06-15T15:16:24.585Z,21.30
2018-06-15T15:18:53.051Z,21.60
2018-06-15T15:21:21.485Z,21.40
2018-06-15T15:23:49.929Z,21.00
2018-06-15T15:26:18.393Z,20.90
2018-06-15T15:28:46.857Z,21.10
2018-06-15T15:31:15.412Z,21.20
2018-06-15T15:33:43.866Z,21.50
2018-06-15T15:36:12.361Z,21.80
2018-06-15T15:38:40.806Z,21.90
2018-06-15T15:41:09.244Z,22.00
2018-06-15T15:43:37.729Z,21.80
2018-06-15T15:46:06.226Z,21.40
2018-06-15T15:48:34.912Z,21.20
2018-06-15T15:51:03.368Z,21.30
2018-06-15T15:53:31.844Z,21.60
2018-06-15T15:56:00.342Z,21.80
2018-06-15T15:58:28.786Z,21.70
2018-06-15T16:03:47.578Z,21.90
2018-06-15T16:06:15.991Z,22.00
2018-06-15T16:08:44.509Z,21.80
2018-06-15T16:13:41.090Z,21.80
2018-06-15T16:16:09.958Z,21.90
2018-06-15T16:21:06.601Z,21.80
2018-06-15T16:23:35.082Z,21.60
2018-06-15T16:28:31.653Z,21.40
2018-06-15T16:31:00.088Z,21.40
2018-06-15T16:33:28.567Z,21.40
2018-06-15T16:35:57.028Z,21.50
2018-06-15T16:38:25.577Z,21.60
2018-06-15T16:40:54.026Z,21.50
2018-06-15T16:43:22.507Z,21.40
2018-06-15T16:45:51.150Z,21.40
2018-06-15T16:48:19.571Z,21.20
2018-06-15T16:50:48.038Z,20.70
2018-06-15T16:53:16.533Z,20.50
2018-06-15T16:55:45.035Z,20.60
2018-06-15T16:58:13.480Z,20.60
2018-06-15T17:00:41.924Z,20.60
2018-06-15T17:03:10.351Z,20.60
2018-06-15T17:05:38.867Z,20.70
2018-06-15T17:08:07.315Z,20.90
2018-06-15T17:10:35.784Z,20.90
2018-06-15T17:13:04.241Z,20.90
2018-06-15T17:15:33.884Z,20.90
2018-06-15T17:18:02.353Z,20.90
2018-06-15T17:20:30.806Z,20.90
2018-06-15T17:22:59.227Z,20.70
2018-06-15T17:25:27.679Z,20.70
2018-06-15T17:27:56.146Z,20.60
2018-06-15T17:30:24.602Z,20.50
2018-06-15T17:32:53.047Z,20.40
2018-06-15T17:37:54.669Z,20.30
2018-06-15T17:40:23.167Z,20.30
2018-06-15T17:42:51.591Z,20.40
2018-06-15T17:45:20.033Z,20.30
2018-06-15T17:47:48.533Z,20.30
2018-06-15T17:52:45.135Z,20.30
2018-06-15T17:55:13.567Z,20.30
2018-06-15T17:57:42.260Z,20.30
2018-06-15T18:00:10.698Z,20.30
2018-06-15T18:02:39.158Z,20.30
2018-06-15T18:05:07.592Z,20.20
2018-06-15T18:10:04.213Z,20.10
2018-06-15T18:12:32.682Z,20.00
2018-06-15T18:15:01.122Z,20.00
2018-06-15T18:17:29.645Z,19.90
2018-06-15T18:19:58.080Z,19.80
2018-06-15T18:22:26.562Z,19.80
2018-06-15T18:24:55.182Z,19.70
2018-06-15T18:27:23.652Z,19.70
2018-06-15T18:29:52.112Z,19.60
2018-06-15T18:32:20.570Z,19.60
2018-06-15T18:37:17.255Z,19.50
2018-06-15T18:39:45.730Z,19.50
2018-06-15T18:42:14.218Z,19.50
2018-06-15T18:44:42.672Z,19.40
2018-06-15T18:47:11.129Z,19.40
2018-06-15T18:49:39.589Z,19.40
2018-06-15T18:52:08.090Z,19.30
2018-06-15T18:54:36.551Z,19.20
2018-06-15T18:57:05.484Z,19.20
2018-06-15T19:02:02.801Z,19.10
2018-06-15T19:04:31.265Z,19.00
2018-06-15T19:06:59.719Z,19.00
2018-06-15T19:09:28.197Z,19.00
2018-06-15T19:14:24.790Z,18.90
2018-06-15T19:16:53.213Z,18.90
2018-06-15T19:21:49.837Z,18.70
2018-06-15T19:24:18.290Z,18.60
2018-06-15T19:26:46.775Z,18.60
2018-06-15T19:29:15.238Z,18.50
2018-06-15T19:31:43.690Z,18.50
2018-06-15T19:36:40.319Z,18.50
2018-06-15T19:39:09.492Z,18.50
2018-06-15T19:41:37.950Z,18.40
2018-06-15T19:44:06.523Z,18.40
2018-06-15T19:46:35.134Z,18.30
2018-06-15T19:49:03.634Z,18.30
2018-06-15T19:51:32.922Z,18.30
2018-06-15T19:54:01.408Z,18.20
2018-06-15T19:56:29.854Z,18.20
2018-06-15T19:58:58.355Z,18.20
2018-06-15T20:01:27.301Z,18.10
2018-06-15T20:03:55.761Z,18.10
2018-06-15T20:06:24.265Z,18.00
2018-06-15T20:08:52.768Z,17.90
2018-06-15T20:11:21.226Z,17.90
2018-06-15T20:13:49.658Z,17.90
2018-06-15T20:16:18.121Z,17.80
2018-06-15T20:18:46.553Z,17.80
2018-06-15T20:23:43.202Z,17.70
2018-06-15T20:26:11.683Z,17.60
2018-06-15T20:31:08.321Z,17.50
2018-06-15T20:33:36.775Z,17.50
2018-06-15T20:36:05.295Z,17.50
2018-06-15T20:38:33.783Z,17.50
2018-06-15T20:41:02.261Z,17.50
2018-06-15T20:45:58.872Z,17.40
2018-06-15T20:48:27.293Z,17.40
2018-06-15T20:53:23.926Z,17.40
2018-06-15T20:55:52.405Z,17.40
2018-06-15T20:58:20.836Z,17.40
2018-06-15T21:00:49.294Z,17.40
2018-06-15T21:05:45.875Z,17.30
2018-06-15T21:08:14.335Z,17.20
2018-06-15T21:10:42.812Z,17.20
2018-06-15T21:13:11.247Z,17.20
2018-06-15T21:15:39.737Z,17.20
2018-06-15T21:18:08.183Z,17.20
2018-06-15T21:20:36.638Z,17.20
2018-06-15T21:23:05.086Z,17.10
2018-06-15T21:25:33.538Z,17.10
2018-06-15T21:28:02.001Z,17.10
2018-06-15T21:30:30.441Z,17.10
2018-06-15T21:35:27.018Z,17.00
2018-06-15T21:37:55.530Z,17.00
2018-06-15T21:40:23.976Z,17.00
2018-06-15T21:42:52.456Z,16.90
2018-06-15T21:45:20.952Z,16.90
2018-06-15T21:47:49.395Z,16.80
2018-06-15T21:52:45.969Z,16.70
2018-06-15T21:55:14.445Z,16.60
2018-06-15T21:57:42.906Z,16.60
2018-06-15T22:00:11.374Z,16.70
2018-06-15T22:02:39.862Z,16.70
2018-06-15T22:07:36.471Z,16.40
2018-06-15T22:10:04.902Z,16.30
2018-06-15T22:12:33.402Z,16.20
2018-06-15T22:15:01.849Z,16.30
2018-06-15T22:17:30.295Z,16.30
2018-06-15T22:19:58.720Z,16.20
2018-06-15T22:22:27.182Z,16.20
2018-06-15T22:24:55.696Z,16.20
2018-06-15T22:27:24.143Z,16.20
2018-06-15T22:29:52.566Z,16.10
2018-06-15T22:32:21.070Z,16.10
2018-06-15T22:34:49.486Z,16.00
2018-06-15T22:37:17.968Z,16.00
2018-06-15T22:39:46.390Z,15.90
2018-06-15T22:42:14.875Z,15.90
2018-06-15T22:44:43.318Z,15.80
2018-06-15T22:47:11.758Z,15.80
2018-06-15T22:49:40.203Z,15.70
2018-06-15T22:52:08.650Z,15.70
2018-06-15T22:57:05.273Z,15.60
2018-06-15T22:59:33.738Z,15.60
2018-06-15T23:02:02.183Z,15.50
2018-06-15T23:04:30.658Z,15.50
2018-06-15T23:06:59.103Z,15.40
2018-06-15T23:09:27.546Z,15.40
2018-06-15T23:11:55.987Z,15.40
2018-06-15T23:14:24.467Z,15.30
2018-06-15T23:19:21.039Z,15.40
2018-06-15T23:21:49.460Z,15.40
2018-06-15T23:24:17.918Z,15.40
2018-06-15T23:26:46.375Z,15.40
2018-06-15T23:29:14.834Z,15.40
2018-06-15T23:34:11.414Z,15.50
2018-06-15T23:36:39.878Z,15.50
2018-06-15T23:41:37.394Z,15.50
2018-06-15T23:44:05.870Z,15.50
2018-06-15T23:46:34.318Z,15.50
2018-06-15T23:49:02.781Z,15.50
2018-06-15T23:51:31.225Z,15.60
2018-06-15T23:53:59.669Z,15.60
2018-06-15T23:56:28.093Z,15.50
2018-06-15T23:58:56.593Z,15.50
